createdAt,value
2023-03-06T00:02:01.264Z,7.57
2023-03-06T00:04:29.461Z,11.60
2023-03-06T00:06:57.647Z,6.82
2023-03-06T00:09:27.244Z,6.95
2023-03-06T00:11:55.428Z,6.90
2023-03-06T00:14:23.591Z,5.50
2023-03-06T00:16:55.924Z,7.32
2023-03-06T00:19:24.433Z,5.72
2023-03-06T00:21:52.623Z,12.95
2023-03-06T00:24:20.793Z,8.02
2023-03-06T00:26:50.915Z,10.18
2023-03-06T00:29:19.598Z,8.13
2023-03-06T00:31:48.024Z,13.23
2023-03-06T00:34:16.273Z,9.85
2023-03-06T00:36:44.460Z,7.43
2023-03-06T00:39:12.644Z,7.47
2023-03-06T00:41:40.834Z,7.80
2023-03-06T00:44:10.389Z,7.20
2023-03-06T00:46:38.576Z,8.45
2023-03-06T00:49:06.785Z,10.70
2023-03-06T00:51:34.977Z,9.35
2023-03-06T00:54:03.166Z,7.78
2023-03-06T00:56:31.337Z,9.43
2023-03-06T00:58:59.495Z,11.70
2023-03-06T01:01:29.305Z,6.72
2023-03-06T01:03:57.502Z,8.07
2023-03-06T01:06:25.830Z,7.63
2023-03-06T01:08:53.996Z,11.52
2023-03-06T01:11:22.269Z,12.95
2023-03-06T01:13:50.788Z,16.13
2023-03-06T01:16:19.911Z,7.78
2023-03-06T01:18:51.484Z,8.02
2023-03-06T01:21:19.742Z,9.98
2023-03-06T01:23:48.008Z,10.23
2023-03-06T01:26:16.235Z,11.68
2023-03-06T01:28:44.451Z,10.07
2023-03-06T01:31:12.743Z,7.32
2023-03-06T01:33:40.982Z,22.50
2023-03-06T01:36:13.599Z,32.20
2023-03-06T01:38:41.777Z,22.75
2023-03-06T01:41:10.891Z,15.52
2023-03-06T01:43:42.324Z,16.08
2023-03-06T01:46:26.467Z,10.32
2023-03-06T01:48:57.546Z,14.35
2023-03-06T01:51:31.247Z,8.45
2023-03-06T01:54:02.942Z,16.25
2023-03-06T01:56:31.171Z,15.57
2023-03-06T01:59:00.223Z,11.27
2023-03-06T02:01:28.716Z,12.13
2023-03-06T02:03:57.294Z,11.32
2023-03-06T02:06:26.957Z,9.25
2023-03-06T02:08:55.823Z,10.27
2023-03-06T02:11:25.572Z,9.63
2023-03-06T02:13:55.701Z,12.90
2023-03-06T02:16:28.935Z,8.80
2023-03-06T02:18:59.322Z,17.17
2023-03-06T02:21:33.933Z,11.05
2023-03-06T02:24:12.316Z,11.70
2023-03-06T02:26:43.286Z,11.05
2023-03-06T02:29:12.113Z,12.80
2023-03-06T02:31:40.314Z,12.93
2023-03-06T02:34:30.016Z,8.57
2023-03-06T02:37:02.626Z,14.75
2023-03-06T02:39:35.128Z,11.05
2023-03-06T02:42:03.320Z,19.15
2023-03-06T02:44:34.736Z,14.82
2023-03-06T02:47:03.158Z,12.50
2023-03-06T02:49:31.343Z,14.05
2023-03-06T02:52:01.056Z,14.07
2023-03-06T02:54:29.484Z,13.70
2023-03-06T02:56:57.645Z,13.43
2023-03-06T02:59:26.753Z,11.35
2023-03-06T03:01:55.372Z,13.68
2023-03-06T03:04:23.731Z,14.73
2023-03-06T03:06:52.313Z,13.73
2023-03-06T03:09:22.539Z,15.15
2023-03-06T03:11:50.690Z,14.15
2023-03-06T03:14:19.095Z,15.35
2023-03-06T03:16:48.659Z,23.08
2023-03-06T03:19:16.917Z,17.13
2023-03-06T03:21:45.288Z,15.88
2023-03-06T03:24:13.448Z,15.00
2023-03-06T03:26:45.260Z,15.80
2023-03-06T03:29:17.580Z,16.60
2023-03-06T03:31:45.888Z,21.33
2023-03-06T03:34:14.241Z,25.08
2023-03-06T03:36:43.809Z,26.08
2023-03-06T03:39:13.807Z,20.77
2023-03-06T03:41:44.635Z,15.63
2023-03-06T03:44:14.584Z,14.48
2023-03-06T03:46:42.836Z,16.23
2023-03-06T03:49:16.376Z,21.17
2023-03-06T03:51:45.986Z,18.23
2023-03-06T03:54:14.606Z,22.08
2023-03-06T03:56:47.903Z,16.55
2023-03-06T03:59:25.951Z,17.60
2023-03-06T04:02:05.810Z,12.27
2023-03-06T04:04:39.718Z,16.88
2023-03-06T04:07:08.814Z,14.68
2023-03-06T04:09:37.944Z,18.58
2023-03-06T04:12:08.563Z,21.13
2023-03-06T04:14:38.407Z,20.88
2023-03-06T04:17:07.440Z,20.08
2023-03-06T04:19:35.714Z,25.95
2023-03-06T04:22:03.867Z,28.83
2023-03-06T04:24:34.295Z,26.55
2023-03-06T04:27:02.910Z,24.90
2023-03-06T04:29:32.589Z,21.60
2023-03-06T04:32:01.337Z,26.38
2023-03-06T04:34:29.570Z,36.47
2023-03-06T04:36:58.723Z,30.65
2023-03-06T04:39:27.636Z,18.35
2023-03-06T04:41:56.359Z,22.83
2023-03-06T04:44:25.131Z,27.05
2023-03-06T04:46:54.682Z,23.33
2023-03-06T04:49:22.873Z,32.22
2023-03-06T04:51:51.034Z,57.45
2023-03-06T04:54:19.299Z,36.42
2023-03-06T04:56:58.820Z,50.80
2023-03-06T04:59:27.158Z,34.20
2023-03-06T05:01:56.859Z,31.30
2023-03-06T05:04:25.177Z,33.88
2023-03-06T05:06:53.408Z,35.83
2023-03-06T05:09:21.607Z,34.88
2023-03-06T05:11:49.774Z,27.58
2023-03-06T05:14:17.912Z,23.80
2023-03-06T05:16:49.043Z,21.13
2023-03-06T05:19:18.649Z,20.23
2023-03-06T05:21:46.869Z,24.75
2023-03-06T05:24:15.072Z,22.52
2023-03-06T05:26:43.263Z,24.70
2023-03-06T05:29:11.437Z,25.13
2023-03-06T05:31:39.656Z,26.35
2023-03-06T05:34:07.896Z,26.92
2023-03-06T05:36:37.481Z,25.50
2023-03-06T05:39:06.332Z,23.00
2023-03-06T05:41:34.521Z,23.98
2023-03-06T05:44:03.097Z,23.27
2023-03-06T05:46:31.308Z,25.52
2023-03-06T05:48:59.500Z,22.58
2023-03-06T05:51:27.872Z,24.15
2023-03-06T05:53:57.449Z,29.33
2023-03-06T05:56:25.920Z,22.33
2023-03-06T05:58:54.068Z,24.52
2023-03-06T06:01:22.478Z,21.48
2023-03-06T06:03:50.709Z,29.23
2023-03-06T06:06:19.173Z,25.65
2023-03-06T06:08:47.363Z,24.92
2023-03-06T06:11:18.248Z,30.33
2023-03-06T06:13:46.497Z,34.85
2023-03-06T06:16:17.001Z,26.38
2023-03-06T06:18:45.254Z,25.52
2023-03-06T06:21:14.485Z,28.10
2023-03-06T06:23:43.053Z,29.10
2023-03-06T06:26:12.150Z,27.02
2023-03-06T06:28:41.717Z,31.92
2023-03-06T06:31:11.205Z,20.67
2023-03-06T06:33:39.634Z,23.75
2023-03-06T06:36:16.479Z,22.10
2023-03-06T06:38:45.293Z,23.13
2023-03-06T06:44:08.442Z,28.42
2023-03-06T06:47:20.879Z,32.65
2023-03-06T06:49:25.527Z,40.25
2023-03-06T06:51:53.723Z,49.25
2023-03-06T06:54:22.343Z,29.90
2023-03-06T06:56:50.527Z,20.65
2023-03-06T06:59:20.204Z,29.77
2023-03-06T07:01:48.521Z,18.88
2023-03-06T07:04:18.041Z,24.80
2023-03-06T07:06:46.497Z,36.70
2023-03-06T07:09:15.583Z,27.20
2023-03-06T07:11:43.796Z,21.10
2023-03-06T07:14:11.971Z,16.42
2023-03-06T07:16:41.561Z,15.98
2023-03-06T07:19:09.836Z,15.80
2023-03-06T07:21:39.664Z,19.65
2023-03-06T07:24:08.030Z,18.08
2023-03-06T07:26:36.294Z,17.48
2023-03-06T07:29:04.901Z,17.58
2023-03-06T07:31:33.460Z,18.70
2023-03-06T07:34:04.906Z,20.50
2023-03-06T07:36:34.604Z,20.92
2023-03-06T07:39:02.911Z,19.55
2023-03-06T07:41:31.094Z,21.10
2023-03-06T07:43:59.391Z,17.13
2023-03-06T07:46:27.629Z,19.17
2023-03-06T07:48:55.797Z,21.75
2023-03-06T07:51:28.062Z,16.40
2023-03-06T07:53:56.213Z,17.80
2023-03-06T07:56:24.392Z,17.55
2023-03-06T07:58:52.558Z,11.57
2023-03-06T08:01:23.500Z,12.40
2023-03-06T08:03:51.906Z,6.75
2023-03-06T08:06:23.180Z,11.30
2023-03-06T08:08:55.163Z,11.60
2023-03-06T08:11:25.764Z,7.70
2023-03-06T08:13:54.753Z,10.50
2023-03-06T08:16:24.284Z,5.15
2023-03-06T08:18:52.939Z,8.60
2023-03-06T08:21:23.511Z,4.88
2023-03-06T08:23:53.755Z,9.02
2023-03-06T08:26:23.929Z,9.05
2023-03-06T08:28:52.894Z,4.07
2023-03-06T08:31:28.430Z,7.72
2023-03-06T08:33:58.527Z,6.90
2023-03-06T08:36:27.252Z,8.85
2023-03-06T08:38:58.166Z,7.88
2023-03-06T08:41:29.696Z,11.00
2023-03-06T08:43:58.661Z,10.95
2023-03-06T08:46:28.325Z,10.77
2023-03-06T08:48:56.608Z,11.45
2023-03-06T08:51:25.256Z,11.70
2023-03-06T08:53:53.755Z,10.32
2023-03-06T08:56:25.164Z,17.35
2023-03-06T08:58:54.827Z,9.15
2023-03-06T09:01:25.739Z,8.25
2023-03-06T09:03:57.080Z,12.13
2023-03-06T09:06:26.943Z,8.13
2023-03-06T09:08:55.833Z,8.55
2023-03-06T09:11:28.248Z,7.82
2023-03-06T09:13:57.034Z,9.40
2023-03-06T09:16:26.346Z,10.75
2023-03-06T09:18:54.848Z,10.88
2023-03-06T09:21:23.800Z,7.43
2023-03-06T09:23:52.400Z,12.70
2023-03-06T09:26:20.754Z,9.32
2023-03-06T09:28:50.377Z,8.30
2023-03-06T09:31:20.625Z,7.28
2023-03-06T09:33:49.414Z,9.18
2023-03-06T09:36:22.620Z,7.30
2023-03-06T09:38:51.351Z,10.73
2023-03-06T09:41:38.336Z,12.52
2023-03-06T09:44:14.538Z,6.60
2023-03-06T09:47:17.197Z,10.15
2023-03-06T09:50:04.915Z,10.15
2023-03-06T09:52:37.388Z,7.68
2023-03-06T09:55:13.569Z,4.55
2023-03-06T09:57:46.499Z,7.35
2023-03-06T10:00:20.397Z,5.70
2023-03-06T10:02:54.575Z,11.68
2023-03-06T10:05:25.826Z,18.85
2023-03-06T10:07:59.392Z,10.98
2023-03-06T10:10:29.824Z,7.53
2023-03-06T10:13:07.469Z,10.93
2023-03-06T10:15:41.728Z,17.17
2023-03-06T10:18:12.470Z,12.52
2023-03-06T10:20:49.428Z,5.65
2023-03-06T10:23:42.141Z,6.20
2023-03-06T10:26:19.547Z,9.77
2023-03-06T10:28:57.762Z,4.50
2023-03-06T10:31:29.276Z,9.60
2023-03-06T10:33:59.774Z,6.80
2023-03-06T10:36:29.871Z,3.95
2023-03-06T10:39:00.342Z,4.40
2023-03-06T10:41:30.993Z,3.08
2023-03-06T10:44:18.851Z,14.50
2023-03-06T10:46:51.418Z,9.48
2023-03-06T10:49:32.780Z,1.48
2023-03-06T10:52:04.218Z,14.90
2023-03-06T10:54:34.864Z,5.07
2023-03-06T10:57:22.762Z,6.70
2023-03-06T10:59:56.141Z,8.25
2023-03-06T11:02:38.421Z,4.50
2023-03-06T11:05:18.768Z,2.53
2023-03-06T11:07:55.750Z,2.95
2023-03-06T11:10:24.625Z,3.72
2023-03-06T11:13:00.144Z,1.80
2023-03-06T11:15:28.726Z,4.03
2023-03-06T11:18:01.720Z,2.28
2023-03-06T11:20:50.054Z,3.13
2023-03-06T11:23:22.883Z,1.98
2023-03-06T11:25:56.142Z,1.65
2023-03-06T11:28:28.578Z,2.22
2023-03-06T11:31:00.649Z,3.05
2023-03-06T11:33:36.540Z,1.20
2023-03-06T11:36:14.415Z,4.45
2023-03-06T11:38:49.906Z,3.67
2023-03-06T11:41:27.758Z,3.38
2023-03-06T11:44:01.975Z,4.88
2023-03-06T11:46:34.094Z,9.48
2023-03-06T11:49:14.360Z,5.68
2023-03-06T11:51:48.420Z,19.90
2023-03-06T11:54:19.674Z,8.50
2023-03-06T11:56:53.950Z,10.20
2023-03-06T11:59:47.551Z,10.88
2023-03-06T12:02:26.417Z,6.82
2023-03-06T12:05:11.585Z,4.93
2023-03-06T12:07:47.612Z,34.55
2023-03-06T12:10:23.265Z,12.23
2023-03-06T12:13:16.985Z,5.10
2023-03-06T12:16:04.137Z,14.85
2023-03-06T12:18:48.887Z,7.07
2023-03-06T12:21:26.745Z,12.60
2023-03-06T12:24:10.057Z,8.05
2023-03-06T12:27:09.984Z,5.43
2023-03-06T12:30:00.382Z,4.78
2023-03-06T12:32:39.993Z,7.85
2023-03-06T12:35:37.274Z,8.85
2023-03-06T12:38:25.404Z,9.00
2023-03-06T12:41:06.419Z,5.63
2023-03-06T12:43:58.165Z,7.43
2023-03-06T12:46:28.018Z,14.25
2023-03-06T12:49:05.296Z,11.98
2023-03-06T12:51:34.365Z,8.07
2023-03-06T12:54:04.696Z,8.30
2023-03-06T12:56:34.372Z,4.47
2023-03-06T12:59:02.976Z,6.60
2023-03-06T13:01:55.473Z,7.63
2023-03-06T13:04:49.052Z,5.32
2023-03-06T13:07:29.385Z,11.52
2023-03-06T13:10:10.292Z,10.45
2023-03-06T13:13:05.026Z,7.80
2023-03-06T13:15:42.721Z,6.47
2023-03-06T13:18:47.380Z,15.10
2023-03-06T13:22:01.449Z,2.88
2023-03-06T13:24:31.827Z,3.65
2023-03-06T13:27:12.620Z,4.68
2023-03-06T13:29:52.835Z,6.60
2023-03-06T13:32:31.069Z,11.07
2023-03-06T13:34:59.399Z,4.40
2023-03-06T13:37:54.889Z,5.90
2023-03-06T13:40:31.829Z,4.88
2023-03-06T13:43:32.881Z,4.57
2023-03-06T13:46:26.504Z,1.67
2023-03-06T13:49:19.596Z,5.35
2023-03-06T13:52:06.076Z,1.30
2023-03-06T13:54:47.653Z,1.27
2023-03-06T13:57:36.070Z,3.33
2023-03-06T14:00:27.848Z,4.35
2023-03-06T14:03:09.631Z,3.22
2023-03-06T14:05:43.860Z,5.25
2023-03-06T14:08:16.005Z,5.25
2023-03-06T14:10:46.378Z,6.03
2023-03-06T14:13:20.853Z,4.50
2023-03-06T14:15:52.329Z,7.00
2023-03-06T14:18:23.896Z,2.67
2023-03-06T14:20:57.081Z,11.13
2023-03-06T14:23:32.119Z,4.38
2023-03-06T14:26:15.231Z,9.95
2023-03-06T14:28:44.723Z,9.70
2023-03-06T14:31:20.417Z,4.10
2023-03-06T14:33:53.077Z,2.92
2023-03-06T14:36:23.392Z,0.88
2023-03-06T14:38:54.543Z,4.03
2023-03-06T14:41:28.616Z,6.28
2023-03-06T14:44:17.809Z,3.30
2023-03-06T14:46:48.929Z,2.42
2023-03-06T14:49:21.230Z,9.88
2023-03-06T14:51:51.958Z,10.60
2023-03-06T14:54:22.785Z,5.30
2023-03-06T14:56:55.103Z,5.22
2023-03-06T14:59:26.472Z,10.32
2023-03-06T15:02:00.941Z,15.32
2023-03-06T15:04:36.568Z,16.40
2023-03-06T15:07:09.910Z,9.15
2023-03-06T15:09:40.284Z,4.18
2023-03-06T15:12:34.814Z,6.38
2023-03-06T15:15:30.901Z,10.80
2023-03-06T15:18:01.192Z,3.90
2023-03-06T15:20:47.212Z,3.95
2023-03-06T15:23:21.133Z,2.38
2023-03-06T15:26:26.165Z,3.83
2023-03-06T15:29:06.992Z,5.25
2023-03-06T15:31:38.929Z,2.08
2023-03-06T15:34:24.355Z,4.80
2023-03-06T15:36:57.131Z,4.03
2023-03-06T15:39:39.043Z,3.33
2023-03-06T15:42:21.840Z,3.67
2023-03-06T15:44:52.851Z,5.05
2023-03-06T15:47:21.758Z,3.42
2023-03-06T15:49:53.033Z,4.00
2023-03-06T15:52:24.683Z,4.28
2023-03-06T15:54:53.413Z,3.28
2023-03-06T15:57:24.138Z,3.85
2023-03-06T15:59:53.509Z,3.22
2023-03-06T16:02:24.133Z,3.97
2023-03-06T16:04:54.231Z,2.30
2023-03-06T16:07:22.777Z,3.72
2023-03-06T16:09:50.922Z,3.33
2023-03-06T16:12:20.557Z,7.00
2023-03-06T16:14:49.823Z,11.60
2023-03-06T16:17:18.700Z,4.40
2023-03-06T16:19:47.324Z,4.88
2023-03-06T16:22:18.228Z,3.65
2023-03-06T16:24:46.650Z,3.38
2023-03-06T16:27:19.022Z,6.25
2023-03-06T16:29:47.453Z,7.03
2023-03-06T16:32:15.763Z,5.13
2023-03-06T16:34:48.304Z,3.17
2023-03-06T16:37:18.095Z,4.55
2023-03-06T16:39:46.305Z,4.03
2023-03-06T16:42:16.415Z,7.22
2023-03-06T16:44:44.565Z,3.72
2023-03-06T16:47:13.227Z,1.30
2023-03-06T16:49:41.408Z,1.05
2023-03-06T16:52:12.032Z,3.63
2023-03-06T16:54:44.252Z,9.35
2023-03-06T16:57:15.598Z,6.28
2023-03-06T16:59:47.166Z,4.95
2023-03-06T17:02:15.357Z,3.90
2023-03-06T17:04:43.600Z,5.13
2023-03-06T17:07:11.766Z,6.03
2023-03-06T17:09:41.295Z,4.32
2023-03-06T17:12:10.239Z,8.70
2023-03-06T17:14:40.879Z,6.07
2023-03-06T17:17:10.141Z,5.75
2023-03-06T17:19:38.496Z,6.53
2023-03-06T17:22:06.758Z,9.70
2023-03-06T17:24:36.572Z,6.05
2023-03-06T17:27:06.417Z,6.70
2023-03-06T17:29:34.670Z,9.40
2023-03-06T17:32:03.032Z,10.80
2023-03-06T17:34:31.212Z,11.43
2023-03-06T17:37:00.742Z,9.60
2023-03-06T17:39:33.012Z,10.82
2023-03-06T17:42:01.203Z,7.70
2023-03-06T17:44:30.940Z,8.82
2023-03-06T17:46:59.109Z,12.15
2023-03-06T17:49:27.265Z,10.85
2023-03-06T17:51:56.902Z,10.27
2023-03-06T17:54:26.155Z,9.20
2023-03-06T17:56:54.390Z,11.25
2023-03-06T17:59:22.743Z,12.02
2023-03-06T18:01:52.329Z,12.30
2023-03-06T18:04:20.465Z,14.80
2023-03-06T18:06:48.614Z,14.30
2023-03-06T18:09:16.777Z,11.38
2023-03-06T18:11:44.915Z,16.35
2023-03-06T18:14:13.542Z,7.75
2023-03-06T18:16:42.031Z,12.80
2023-03-06T18:19:12.200Z,27.58
2023-03-06T18:21:40.906Z,27.90
2023-03-06T18:24:10.323Z,25.50
2023-03-06T18:26:38.875Z,25.80
2023-03-06T18:29:07.533Z,34.80
2023-03-06T18:31:37.740Z,28.65
2023-03-06T18:34:08.277Z,25.95
2023-03-06T18:36:38.380Z,19.33
2023-03-06T18:39:12.654Z,20.42
2023-03-06T18:41:41.350Z,17.88
2023-03-06T18:44:09.606Z,16.25
2023-03-06T18:46:39.389Z,13.60
2023-03-06T18:49:11.696Z,19.83
2023-03-06T18:51:41.490Z,25.20
2023-03-06T18:54:10.949Z,25.58
2023-03-06T18:56:40.298Z,19.63
2023-03-06T18:59:08.783Z,24.40
2023-03-06T19:01:37.707Z,17.23
2023-03-06T19:04:06.396Z,26.23
2023-03-06T19:06:34.652Z,28.05
2023-03-06T19:09:04.568Z,23.05
2023-03-06T19:11:33.532Z,23.77
2023-03-06T19:14:01.984Z,29.15
2023-03-06T19:16:31.362Z,33.40
2023-03-06T19:19:00.117Z,17.05
2023-03-06T19:21:29.470Z,27.23
2023-03-06T19:23:58.342Z,24.38
2023-03-06T19:26:28.082Z,21.15
2023-03-06T19:28:56.242Z,22.67
2023-03-06T19:31:29.252Z,18.85
2023-03-06T19:33:57.791Z,20.33
2023-03-06T19:36:33.469Z,16.58
2023-03-06T19:39:04.008Z,19.75
2023-03-06T19:41:34.142Z,19.15
2023-03-06T19:44:04.955Z,20.45
2023-03-06T19:46:34.520Z,19.85
2023-03-06T19:49:05.621Z,17.75
2023-03-06T19:51:34.873Z,23.77
2023-03-06T19:54:03.207Z,15.13
2023-03-06T19:56:33.662Z,13.57
2023-03-06T19:59:01.943Z,20.58
2023-03-06T20:01:30.385Z,22.65
2023-03-06T20:04:00.050Z,22.52
2023-03-06T20:06:29.743Z,18.58
2023-03-06T20:08:57.932Z,16.90
2023-03-06T20:11:29.754Z,19.65
2023-03-06T20:14:00.820Z,23.52
2023-03-06T20:16:30.515Z,27.92
2023-03-06T20:19:00.189Z,18.90
2023-03-06T20:21:30.280Z,21.33
2023-03-06T20:24:01.992Z,22.55
2023-03-06T20:26:31.323Z,25.50
2023-03-06T20:29:01.327Z,30.10
2023-03-06T20:31:31.591Z,28.48
2023-03-06T20:34:00.512Z,23.98
2023-03-06T20:36:31.131Z,23.13
2023-03-06T20:39:01.247Z,26.73
2023-03-06T20:41:31.768Z,24.63
2023-03-06T20:44:02.964Z,24.10
2023-03-06T20:46:31.735Z,27.30
2023-03-06T20:49:00.126Z,29.20
2023-03-06T20:51:31.412Z,28.00
2023-03-06T20:54:00.777Z,30.55
2023-03-06T20:56:31.652Z,32.10
2023-03-06T20:59:01.827Z,32.35
2023-03-06T21:01:31.599Z,34.03
2023-03-06T21:04:00.797Z,24.63
2023-03-06T21:06:30.009Z,41.15
2023-03-06T21:09:01.589Z,54.95
2023-03-06T21:11:30.062Z,58.70
2023-03-06T21:14:01.127Z,71.65
2023-03-06T21:16:31.233Z,68.18
2023-03-06T21:19:01.191Z,41.75
2023-03-06T21:21:31.574Z,37.33
2023-03-06T21:24:00.094Z,30.45
2023-03-06T21:26:34.021Z,28.05
2023-03-06T21:29:02.963Z,49.92
2023-03-06T21:31:33.447Z,28.77
2023-03-06T21:34:04.469Z,36.72
2023-03-06T21:36:33.590Z,40.83
2023-03-06T21:39:01.830Z,61.83
2023-03-06T21:41:30.423Z,55.05
2023-03-06T21:44:00.010Z,54.28
2023-03-06T21:46:29.022Z,34.15
2023-03-06T21:49:00.036Z,37.22
2023-03-06T21:51:28.362Z,20.98
2023-03-06T21:53:56.746Z,23.77
2023-03-06T21:56:28.409Z,27.05
2023-03-06T21:58:58.254Z,28.00
2023-03-06T22:01:29.385Z,28.27
2023-03-06T22:03:59.959Z,40.30
2023-03-06T22:06:30.032Z,51.28
2023-03-06T22:08:59.697Z,48.42
2023-03-06T22:11:31.063Z,60.10
2023-03-06T22:13:59.350Z,76.78
2023-03-06T22:16:27.689Z,50.50
2023-03-06T22:18:55.963Z,43.38
2023-03-06T22:21:28.376Z,35.40
2023-03-06T22:23:58.424Z,38.83
2023-03-06T22:26:27.731Z,35.55
2023-03-06T22:28:56.153Z,31.77
2023-03-06T22:31:25.796Z,29.55
2023-03-06T22:33:55.400Z,23.65
2023-03-06T22:36:30.114Z,28.23
2023-03-06T22:39:00.429Z,24.48
2023-03-06T22:41:28.956Z,24.95
2023-03-06T22:43:57.821Z,19.23
2023-03-06T22:46:26.267Z,19.38
2023-03-06T22:48:56.421Z,22.95
2023-03-06T22:51:24.658Z,20.00
2023-03-06T22:53:54.382Z,23.25
2023-03-06T22:56:23.508Z,22.52
2023-03-06T22:58:51.995Z,27.75
2023-03-06T23:01:23.059Z,26.60
2023-03-06T23:03:52.933Z,23.00
2023-03-06T23:06:23.646Z,22.00
2023-03-06T23:08:54.831Z,17.00
2023-03-06T23:11:23.843Z,25.02
2023-03-06T23:14:13.078Z,25.42
2023-03-06T23:16:59.724Z,19.00
2023-03-06T23:19:49.723Z,19.05
2023-03-06T23:22:37.773Z,19.02
2023-03-06T23:25:25.939Z,19.90
2023-03-06T23:27:56.821Z,20.60
2023-03-06T23:30:25.007Z,20.55
2023-03-06T23:32:53.194Z,15.65
2023-03-06T23:35:21.435Z,19.77
2023-03-06T23:37:49.782Z,16.42
2023-03-06T23:40:18.908Z,18.25
2023-03-06T23:42:48.451Z,13.90
2023-03-06T23:45:16.719Z,20.42
2023-03-06T23:47:44.916Z,30.02
2023-03-06T23:50:14.013Z,20.75
2023-03-06T23:52:42.524Z,17.48
2023-03-06T23:55:11.286Z,25.35
2023-03-06T23:57:39.480Z,21.38
